Time;durP1;ratioP1;P1;durP2;ratioP2;P2;SDS_P1;SDS_P2;PMS_P1;PMS_P2;Temp;Humidity;BMP_temperature;BMP_pressure;BME280_temperature;BME280_humidity;BME280_pressure;Samples;Min_cycle;Max_cycle;Signal;HPM_P1;HPM_P2
2022/12/04 05:02:05;;;;;;;7.63;3.55;;;1.00;99.90;;;;;;5247761;23;20268;-66
2022/12/04 05:04:32;;;;;;;10.15;5.72;;;1.00;99.90;;;;;;4992299;28;20254;-66
2022/12/04 05:06:58;;;;;;;28.50;9.20;;;1.00;99.90;;;;;;4992387;28;20203;-65
2022/12/04 05:09:25;;;;;;;11.55;8.63;;;1.00;99.90;;;;;;4992525;28;20226;-66
2022/12/04 05:11:52;;;;;;;10.68;7.70;;;1.00;99.90;;;;;;4985829;28;20223;-66
2022/12/04 05:14:19;;;;;;;14.57;9.77;;;1.00;99.90;;;;;;4982093;28;20272;-65
2022/12/04 05:16:45;;;;;;;3.15;2.95;;;1.00;99.90;;;;;;4975148;28;20215;-67
2022/12/04 05:21:58;;;;;;;13.38;9.07;;;1.00;99.90;;;;;;4989615;28;20236;-65
2022/12/04 05:24:24;;;;;;;6.35;4.80;;;1.00;99.90;;;;;;4991662;28;20217;-65
2022/12/04 05:26:51;;;;;;;6.88;5.28;;;1.00;99.90;;;;;;4982815;28;20278;-65
2022/12/04 05:29:18;;;;;;;7.45;5.40;;;1.00;99.90;;;;;;4976902;28;20242;-64
2022/12/04 05:31:44;;;;;;;9.48;8.40;;;1.00;99.90;;;;;;4982401;28;20226;-65
2022/12/04 05:34:12;;;;;;;9.88;5.97;;;1.00;99.90;;;;;;4981441;28;20210;-64
2022/12/04 05:36:39;;;;;;;17.63;11.48;;;1.00;99.90;;;;;;4979485;28;20287;-65
2022/12/04 05:39:06;;;;;;;7.80;4.68;;;1.00;99.90;;;;;;4976477;28;20698;-65
2022/12/04 05:41:32;;;;;;;9.70;7.70;;;1.00;99.90;;;;;;4991355;28;20261;-66
2022/12/04 05:43:59;;;;;;;9.05;5.43;;;1.00;99.90;;;;;;4984988;28;20351;-66
2022/12/04 05:46:26;;;;;;;8.38;4.60;;;1.10;99.90;;;;;;4976289;28;20208;-66
2022/12/04 05:48:52;;;;;;;30.83;10.68;;;1.00;99.90;;;;;;4979231;28;20207;-65
2022/12/04 05:51:20;;;;;;;7.20;3.78;;;1.00;99.90;;;;;;4986216;28;20228;-66
2022/12/04 05:53:47;;;;;;;18.30;9.93;;;1.00;99.90;;;;;;4984706;28;20215;-65
2022/12/04 05:56:14;;;;;;;7.57;6.15;;;1.00;99.90;;;;;;4990980;28;20236;-66
2022/12/04 05:58:40;;;;;;;7.47;6.85;;;1.10;99.90;;;;;;4990533;28;20210;-65
2022/12/04 06:01:12;;;;;;;17.08;6.30;;;1.10;99.90;;;;;;4979106;28;20287;-65
2022/12/04 06:03:38;;;;;;;5.55;5.28;;;1.00;99.90;;;;;;4982650;28;20199;-65
2022/12/04 06:06:11;;;;;;;26.33;6.63;;;1.10;99.90;;;;;;4985528;28;20234;-66
2022/12/04 06:08:39;;;;;;;15.43;9.75;;;1.10;99.90;;;;;;4981304;28;20592;-66
2022/12/04 06:11:10;;;;;;;19.48;8.88;;;1.10;99.90;;;;;;4972371;28;20323;-66
2022/12/04 06:13:37;;;;;;;21.08;6.32;;;1.10;99.90;;;;;;4972311;28;20208;-66
2022/12/04 06:16:04;;;;;;;15.88;4.93;;;1.10;99.90;;;;;;4971270;28;20211;-66
2022/12/04 06:18:30;;;;;;;10.55;5.88;;;1.10;99.90;;;;;;4971743;28;20205;-66
2022/12/04 06:20:58;;;;;;;9.98;6.50;;;1.10;99.90;;;;;;4974395;28;20678;-65
2022/12/04 06:23:24;;;;;;;6.95;4.88;;;1.10;99.90;;;;;;4983846;28;20211;-66
2022/12/04 06:25:52;;;;;;;20.15;7.18;;;1.10;99.90;;;;;;4974338;28;20638;-64
2022/12/04 06:28:19;;;;;;;11.15;7.57;;;1.10;99.90;;;;;;4988392;28;20610;-66
2022/12/04 06:30:45;;;;;;;11.80;5.50;;;1.10;99.90;;;;;;4975060;28;20250;-66
2022/12/04 06:33:12;;;;;;;6.55;5.53;;;1.10;99.90;;;;;;4980334;28;20212;-65
2022/12/04 06:35:39;;;;;;;8.15;6.93;;;1.10;99.90;;;;;;4986928;28;20206;-66
2022/12/04 06:38:06;;;;;;;7.88;4.57;;;1.10;99.90;;;;;;4974548;28;20208;-65
2022/12/04 06:40:33;;;;;;;5.55;5.22;;;1.10;99.90;;;;;;4972505;28;20319;-66
2022/12/04 06:43:01;;;;;;;6.90;6.35;;;1.10;99.90;;;;;;4989423;28;20215;-66
2022/12/04 06:45:28;;;;;;;12.68;8.07;;;1.10;99.90;;;;;;4982224;28;20204;-66
2022/12/04 06:47:54;;;;;;;11.05;5.30;;;1.10;99.90;;;;;;4986355;28;20208;-66
2022/12/04 06:50:21;;;;;;;8.65;7.00;;;1.10;99.90;;;;;;4981887;28;20210;-66
2022/12/04 06:52:48;;;;;;;10.13;6.70;;;1.10;99.90;;;;;;4979406;28;20208;-66
2022/12/04 06:55:14;;;;;;;12.63;7.20;;;1.10;99.90;;;;;;4982744;28;20639;-66
2022/12/04 06:57:41;;;;;;;7.82;7.18;;;1.10;99.90;;;;;;4978937;28;20211;-66
2022/12/04 07:00:10;;;;;;;10.38;5.45;;;1.20;99.90;;;;;;4974456;28;20206;-65
2022/12/04 07:02:37;;;;;;;4.93;4.55;;;1.10;99.90;;;;;;4969961;28;20221;-66
2022/12/04 07:05:05;;;;;;;14.48;8.73;;;1.20;99.90;;;;;;4975431;28;20211;-65
2022/12/04 07:07:31;;;;;;;13.73;7.35;;;1.20;99.90;;;;;;4980515;28;20208;-66
2022/12/04 07:09:58;;;;;;;10.90;8.43;;;1.20;99.90;;;;;;4981192;28;20224;-65
2022/12/04 07:12:25;;;;;;;26.23;6.15;;;1.20;99.90;;;;;;4976451;28;20269;-65
2022/12/04 07:14:51;;;;;;;15.48;9.18;;;1.20;99.90;;;;;;4972873;28;20209;-65
2022/12/04 07:17:19;;;;;;;12.25;6.15;;;1.20;99.90;;;;;;4981146;28;20215;-65
2022/12/04 07:19:46;;;;;;;8.32;7.43;;;1.20;99.90;;;;;;4979764;28;20721;-65
2022/12/04 07:22:13;;;;;;;7.97;6.32;;;1.20;99.90;;;;;;4971956;28;20243;-65
2022/12/04 07:24:40;;;;;;;6.38;5.90;;;1.30;99.90;;;;;;4974171;28;20637;-68
2022/12/04 07:27:06;;;;;;;7.57;7.07;;;1.20;99.90;;;;;;4982928;28;20639;-65
2022/12/04 07:29:33;;;;;;;4.07;3.15;;;1.30;99.90;;;;;;4977119;28;20227;-65
2022/12/04 07:32:00;;;;;;;6.70;5.85;;;1.30;99.90;;;;;;4979202;28;20748;-66
2022/12/04 07:34:28;;;;;;;19.88;10.32;;;1.30;99.90;;;;;;4972059;28;20288;-66
2022/12/04 07:36:55;;;;;;;8.35;5.10;;;1.30;99.90;;;;;;4983260;28;20357;-65
2022/12/04 07:39:22;;;;;;;12.07;8.07;;;1.30;99.90;;;;;;4981472;28;20299;-66
2022/12/04 07:41:49;;;;;;;13.18;9.35;;;1.30;99.90;;;;;;4975527;28;20236;-66
2022/12/04 07:44:15;;;;;;;15.43;6.13;;;1.30;99.90;;;;;;4975483;28;20204;-65
2022/12/04 07:46:42;;;;;;;11.20;5.65;;;1.30;99.90;;;;;;4977953;28;20200;-65
2022/12/04 07:49:12;;;;;;;2.97;2.78;;;1.30;99.90;;;;;;4979172;28;20212;-65
2022/12/04 07:51:40;;;;;;;9.45;6.30;;;1.30;99.90;;;;;;4975891;28;20682;-67
2022/12/04 07:54:07;;;;;;;11.48;6.85;;;1.30;99.90;;;;;;4973120;28;20297;-66
2022/12/04 07:56:34;;;;;;;6.40;5.38;;;1.30;99.90;;;;;;4980909;28;20206;-66
2022/12/04 07:59:01;;;;;;;5.65;5.35;;;1.30;99.90;;;;;;4980861;28;20524;-66
2022/12/04 08:01:28;;;;;;;6.07;5.47;;;1.40;99.90;;;;;;4978996;28;20227;-66
2022/12/04 08:03:56;;;;;;;13.32;10.63;;;1.40;99.90;;;;;;4986012;28;20207;-65
2022/12/04 08:06:25;;;;;;;19.90;7.50;;;1.40;99.90;;;;;;4976966;28;20553;-66
2022/12/04 08:08:53;;;;;;;9.32;7.68;;;1.40;99.90;;;;;;4988008;28;20223;-66
2022/12/04 08:11:22;;;;;;;2.85;2.65;;;1.40;99.90;;;;;;4993602;28;20231;-67
2022/12/04 08:13:53;;;;;;;4.53;4.10;;;1.40;99.90;;;;;;4989468;28;20211;-66
2022/12/04 08:16:19;;;;;;;11.85;6.80;;;1.40;99.90;;;;;;4979615;28;20207;-66
2022/12/04 08:18:47;;;;;;;8.00;5.78;;;1.40;99.90;;;;;;4992717;28;20285;-64
2022/12/04 08:21:16;;;;;;;14.52;8.73;;;1.40;99.90;;;;;;4978182;28;20243;-65
2022/12/04 08:23:44;;;;;;;6.88;6.47;;;1.40;99.90;;;;;;4978935;28;20672;-66
2022/12/04 08:26:12;;;;;;;11.77;8.98;;;1.40;99.90;;;;;;4981429;28;20212;-65
2022/12/04 08:28:40;;;;;;;12.13;6.88;;;1.50;99.90;;;;;;4980663;28;20216;-66
2022/12/04 08:31:10;;;;;;;11.23;5.97;;;1.50;99.90;;;;;;4982049;28;20306;-65
2022/12/04 08:33:36;;;;;;;5.28;4.68;;;1.50;99.90;;;;;;4983694;28;20207;-66
2022/12/04 08:36:06;;;;;;;8.00;6.57;;;1.50;99.90;;;;;;4984485;28;20281;-65
2022/12/04 08:38:33;;;;;;;9.25;6.88;;;1.50;99.90;;;;;;4985699;28;20263;-66
2022/12/04 08:41:00;;;;;;;12.68;7.68;;;1.50;99.90;;;;;;4993793;28;20239;-66
2022/12/04 08:43:28;;;;;;;12.00;5.10;;;1.60;99.90;;;;;;4984010;28;20240;-64
2022/12/04 08:45:56;;;;;;;9.80;8.90;;;1.60;99.90;;;;;;4978621;28;20216;-66
2022/12/04 08:48:23;;;;;;;11.05;5.85;;;1.60;99.90;;;;;;4975633;28;20205;-67
2022/12/04 08:50:50;;;;;;;11.85;8.00;;;1.60;99.90;;;;;;4977547;28;20229;-66
2022/12/04 08:53:17;;;;;;;8.70;6.40;;;1.60;99.90;;;;;;4981923;28;20532;-69
2022/12/04 08:55:44;;;;;;;11.07;7.50;;;1.70;99.90;;;;;;4976482;28;20201;-66
2022/12/04 08:58:11;;;;;;;9.05;6.18;;;1.70;99.90;;;;;;4987199;28;20291;-67
2022/12/04 09:00:39;;;;;;;15.38;7.78;;;1.70;99.90;;;;;;4992187;28;20242;-67
2022/12/04 09:03:06;;;;;;;13.63;9.25;;;1.70;99.90;;;;;;4988808;28;20231;-67
2022/12/04 09:05:32;;;;;;;14.60;7.68;;;1.70;99.90;;;;;;4974914;28;20218;-67
2022/12/04 09:07:59;;;;;;;10.07;6.47;;;1.70;99.90;;;;;;4975893;28;20218;-67
2022/12/04 09:10:26;;;;;;;21.02;9.88;;;1.70;99.90;;;;;;4975181;28;20634;-66
2022/12/04 09:12:52;;;;;;;19.20;8.13;;;1.70;99.90;;;;;;4989313;28;20717;-66
2022/12/04 09:15:19;;;;;;;7.35;3.80;;;1.70;99.90;;;;;;4987897;28;20204;-68
2022/12/04 09:17:47;;;;;;;7.80;5.78;;;1.70;99.90;;;;;;4985132;28;20209;-67
2022/12/04 09:20:14;;;;;;;12.70;9.50;;;1.80;99.90;;;;;;4973331;28;20205;-67
2022/12/04 09:22:41;;;;;;;8.30;6.15;;;1.80;99.90;;;;;;4974095;28;20251;-66
2022/12/04 09:25:08;;;;;;;12.05;8.00;;;1.80;99.90;;;;;;4973735;28;20213;-65
2022/12/04 09:27:36;;;;;;;15.90;4.50;;;1.80;99.90;;;;;;4973709;28;20231;-65
2022/12/04 09:30:03;;;;;;;15.15;8.32;;;1.80;99.90;;;;;;4978252;28;20215;-65
2022/12/04 09:32:30;;;;;;;5.57;5.13;;;1.80;99.90;;;;;;4974634;28;20239;-65
2022/12/04 09:34:58;;;;;;;23.35;7.75;;;1.80;99.90;;;;;;4974160;28;20209;-64
2022/12/04 09:37:25;;;;;;;15.38;7.35;;;1.80;99.90;;;;;;4980471;28;20732;-65
2022/12/04 09:39:51;;;;;;;23.77;10.15;;;1.90;99.90;;;;;;4977815;28;20204;-64
2022/12/04 09:42:37;;;;;;;12.63;11.32;;;1.90;99.90;;;;;;4978748;28;20369;-64
2022/12/04 09:45:10;;;;;;;9.88;8.35;;;1.90;99.90;;;;;;4987048;28;20225;-64
2022/12/04 09:47:42;;;;;;;11.32;4.78;;;1.90;99.90;;;;;;4978001;28;20212;-64
2022/12/04 09:50:16;;;;;;;9.15;6.90;;;1.90;99.90;;;;;;4981802;28;20288;-64
2022/12/04 09:52:49;;;;;;;4.35;3.90;;;1.90;99.90;;;;;;4972698;28;20203;-65
2022/12/04 09:55:21;;;;;;;16.45;7.30;;;1.90;99.90;;;;;;4972283;28;20224;-65
2022/12/04 09:57:50;;;;;;;7.93;5.13;;;1.90;99.90;;;;;;4970231;28;20567;-65
2022/12/04 10:00:19;;;;;;;11.95;8.43;;;1.90;99.90;;;;;;4984982;28;20284;-65
2022/12/04 10:02:51;;;;;;;15.10;10.02;;;1.90;99.90;;;;;;4982560;28;20698;-65
2022/12/04 10:05:26;;;;;;;14.05;7.55;;;1.90;99.90;;;;;;4990764;28;20223;-64
2022/12/04 10:08:03;;;;;;;11.85;10.98;;;1.90;99.90;;;;;;4977405;28;20211;-64
2022/12/04 10:10:37;;;;;;;8.48;7.47;;;1.90;99.90;;;;;;4985716;28;20204;-65
2022/12/04 10:13:16;;;;;;;7.15;6.35;;;1.90;99.90;;;;;;4983112;28;20623;-64
2022/12/04 10:15:51;;;;;;;7.88;5.30;;;1.90;99.90;;;;;;4982909;28;20227;-64
2022/12/04 10:18:33;;;;;;;9.48;5.20;;;1.90;99.90;;;;;;4972412;28;20664;-64
2022/12/04 10:21:30;;;;;;;8.82;7.22;;;2.00;99.90;;;;;;4972424;28;20227;-64
2022/12/04 10:24:11;;;;;;;7.22;6.57;;;2.00;99.90;;;;;;4981907;28;20216;-65
2022/12/04 10:26:43;;;;;;;12.35;7.43;;;2.00;99.90;;;;;;4990941;28;20200;-64
2022/12/04 10:29:19;;;;;;;10.73;6.85;;;2.00;99.90;;;;;;4991713;28;20220;-65
2022/12/04 10:31:47;;;;;;;7.15;6.40;;;2.00;99.90;;;;;;4982563;28;20322;-64
2022/12/04 10:34:18;;;;;;;8.45;7.65;;;2.00;99.90;;;;;;4991506;28;20691;-64
2022/12/04 10:36:51;;;;;;;9.38;5.95;;;2.10;99.90;;;;;;4983778;28;20211;-63
2022/12/04 10:39:24;;;;;;;13.30;6.85;;;2.10;99.90;;;;;;4980427;28;20613;-64
2022/12/04 10:41:57;;;;;;;12.63;7.38;;;2.10;99.90;;;;;;4977852;28;20328;-65
2022/12/04 10:44:24;;;;;;;13.57;7.70;;;2.10;99.90;;;;;;4971604;28;20271;-65
2022/12/04 10:46:55;;;;;;;7.38;6.18;;;2.10;99.90;;;;;;4972000;28;20217;-64
2022/12/04 10:49:25;;;;;;;14.43;5.63;;;2.20;99.90;;;;;;4981038;28;20211;-64
2022/12/04 10:51:54;;;;;;;6.10;5.60;;;2.20;99.90;;;;;;4981311;28;20224;-64
2022/12/04 10:54:22;;;;;;;10.02;6.50;;;2.20;99.90;;;;;;4984074;28;20204;-64
2022/12/04 10:56:54;;;;;;;14.13;7.53;;;2.20;99.90;;;;;;4981871;28;20215;-64
2022/12/04 10:59:21;;;;;;;7.13;5.85;;;2.20;99.90;;;;;;4971660;28;20220;-64
2022/12/04 11:01:50;;;;;;;5.57;5.07;;;2.30;99.90;;;;;;4971685;28;20231;-64
2022/12/04 11:04:23;;;;;;;15.50;7.65;;;2.30;99.90;;;;;;4971833;28;20212;-64
2022/12/04 11:07:01;;;;;;;5.85;5.32;;;2.30;99.90;;;;;;4972822;28;20794;-64
2022/12/04 11:09:28;;;;;;;6.72;6.22;;;2.30;99.90;;;;;;4979368;28;20276;-65
2022/12/04 11:12:07;;;;;;;17.00;6.10;;;2.30;99.90;;;;;;4991407;28;20332;-65
2022/12/04 11:14:33;;;;;;;10.10;6.00;;;2.40;99.90;;;;;;4974759;28;20263;-65
2022/12/04 11:17:02;;;;;;;8.05;5.45;;;2.40;99.90;;;;;;4971937;28;20231;-65
2022/12/04 11:19:31;;;;;;;18.90;10.07;;;2.40;99.90;;;;;;4982709;28;20200;-65
2022/12/04 11:22:04;;;;;;;9.95;5.30;;;2.40;99.90;;;;;;4976062;28;20327;-64
2022/12/04 11:24:34;;;;;;;12.60;6.65;;;2.40;99.90;;;;;;4979672;28;20213;-64
2022/12/04 11:27:03;;;;;;;13.25;8.27;;;2.40;99.90;;;;;;4975309;28;20200;-65
2022/12/04 11:29:32;;;;;;;9.63;6.22;;;2.50;99.90;;;;;;4979800;28;20215;-64
2022/12/04 11:32:00;;;;;;;15.02;9.30;;;2.50;99.90;;;;;;4981722;28;20235;-65
2022/12/04 11:34:33;;;;;;;5.95;5.55;;;2.50;99.90;;;;;;4973243;28;20602;-65
2022/12/04 11:37:01;;;;;;;24.98;12.60;;;2.50;99.90;;;;;;4981569;28;20208;-66
2022/12/04 11:39:32;;;;;;;15.60;7.53;;;2.60;99.90;;;;;;4972057;28;20217;-65
2022/12/04 11:42:03;;;;;;;8.57;5.18;;;2.60;99.90;;;;;;4972098;28;20259;-65
2022/12/04 11:44:32;;;;;;;7.82;7.10;;;2.60;99.90;;;;;;4969329;28;20264;-65
2022/12/04 11:47:01;;;;;;;19.13;7.30;;;2.60;99.90;;;;;;4979739;28;20204;-65
2022/12/04 11:49:30;;;;;;;10.27;9.27;;;2.60;99.90;;;;;;4982836;28;20200;-64
2022/12/04 11:52:10;;;;;;;7.22;6.57;;;2.60;99.90;;;;;;4984536;28;20250;-64
2022/12/04 11:54:49;;;;;;;11.10;5.53;;;2.60;99.90;;;;;;4972756;28;20703;-64
2022/12/04 11:57:23;;;;;;;5.53;4.95;;;2.60;99.90;;;;;;4981124;28;20211;-64
2022/12/04 12:00:09;;;;;;;5.72;4.72;;;2.60;99.90;;;;;;4973633;28;20208;-64
2022/12/04 12:03:05;;;;;;;13.68;6.85;;;2.60;99.90;;;;;;4974659;28;20260;-65
2022/12/04 12:06:00;;;;;;;10.07;4.57;;;2.60;99.90;;;;;;4981377;28;20223;-65
2022/12/04 12:08:41;;;;;;;32.35;9.00;;;2.60;99.90;;;;;;4973931;28;20304;-64
2022/12/04 12:11:16;;;;;;;9.45;6.25;;;2.60;99.90;;;;;;4982331;28;20232;-65
2022/12/04 12:13:52;;;;;;;10.10;9.05;;;2.60;99.90;;;;;;4983981;28;20262;-65
2022/12/04 12:16:27;;;;;;;14.75;8.35;;;2.60;99.90;;;;;;4987196;28;20208;-64
2022/12/04 12:19:07;;;;;;;11.63;6.90;;;2.60;99.90;;;;;;4974610;28;20203;-64
2022/12/04 12:21:39;;;;;;;11.98;7.75;;;2.60;99.90;;;;;;4979574;28;20229;-64
2022/12/04 12:24:23;;;;;;;3.88;2.20;;;2.60;99.90;;;;;;4976980;28;20221;-65
2022/12/04 12:27:01;;;;;;;2.78;2.58;;;2.60;99.90;;;;;;4980001;28;20239;-65
2022/12/04 12:29:41;;;;;;;6.82;5.15;;;2.60;99.90;;;;;;4981827;28;20231;-65
2022/12/04 12:32:16;;;;;;;6.05;5.72;;;2.60;99.90;;;;;;4989919;28;20230;-65
2022/12/04 12:34:45;;;;;;;14.95;10.15;;;2.60;99.90;;;;;;4986287;28;20204;-65
2022/12/04 12:37:21;;;;;;;10.68;6.97;;;2.60;99.90;;;;;;4976762;28;20659;-65
2022/12/04 12:39:56;;;;;;;13.20;6.10;;;2.60;99.90;;;;;;4989151;28;20370;-65
2022/12/04 12:42:27;;;;;;;12.45;6.38;;;2.70;99.90;;;;;;4973214;28;20323;-65
2022/12/04 12:44:59;;;;;;;11.27;6.90;;;2.70;99.90;;;;;;4973739;28;20577;-65
2022/12/04 12:47:31;;;;;;;7.40;6.82;;;2.70;99.90;;;;;;4974107;28;20208;-65
2022/12/04 12:50:03;;;;;;;19.90;8.65;;;2.70;99.90;;;;;;4975098;28;20671;-64
2022/12/04 12:52:37;;;;;;;11.93;6.20;;;2.70;99.90;;;;;;4982504;28;20686;-65
2022/12/04 12:55:15;;;;;;;8.57;5.18;;;2.70;99.90;;;;;;4978897;28;20219;-65
2022/12/04 12:57:45;;;;;;;9.02;7.40;;;2.70;99.90;;;;;;4980763;28;20247;-64
2022/12/04 13:00:16;;;;;;;11.55;7.05;;;2.80;99.90;;;;;;4982352;28;20201;-65
2022/12/04 13:02:47;;;;;;;11.55;5.88;;;2.80;99.90;;;;;;4973697;28;20698;-65
2022/12/04 13:05:16;;;;;;;13.45;8.48;;;2.70;99.90;;;;;;4980358;28;20208;-65
2022/12/04 13:07:49;;;;;;;8.43;5.53;;;2.70;99.90;;;;;;4980908;28;20789;-65
2022/12/04 13:10:20;;;;;;;7.47;6.43;;;2.80;99.90;;;;;;4979329;28;20291;-65
2022/12/04 13:12:52;;;;;;;9.73;8.32;;;2.80;99.90;;;;;;4981942;28;20212;-65
2022/12/04 13:15:23;;;;;;;13.73;6.00;;;2.80;99.90;;;;;;4973159;28;20246;-65
2022/12/04 13:17:53;;;;;;;11.45;5.10;;;2.80;99.90;;;;;;4981013;28;20209;-65
2022/12/04 13:20:24;;;;;;;10.45;7.78;;;2.80;99.90;;;;;;4982230;28;20209;-65
2022/12/04 13:23:06;;;;;;;9.50;5.70;;;2.80;99.90;;;;;;4977525;28;20221;-65
2022/12/04 13:25:45;;;;;;;7.65;5.63;;;2.80;99.90;;;;;;4983777;28;20227;-65
2022/12/04 13:28:27;;;;;;;21.10;6.15;;;2.80;99.90;;;;;;4974755;28;20307;-65
2022/12/04 13:31:01;;;;;;;14.77;6.45;;;2.80;99.90;;;;;;4972762;28;20225;-65
2022/12/04 13:33:54;;;;;;;6.03;4.55;;;2.80;99.90;;;;;;4973337;28;20231;-65
2022/12/04 13:36:40;;;;;;;7.88;6.43;;;2.90;99.90;;;;;;4974001;28;20213;-65
2022/12/04 13:39:34;;;;;;;7.70;7.00;;;2.90;99.90;;;;;;4960286;28;20287;-65
2022/12/04 13:42:04;;;;;;;7.78;7.28;;;2.90;99.90;;;;;;4976843;28;20327;-65
2022/12/04 13:44:32;;;;;;;10.27;7.30;;;2.90;99.90;;;;;;4972915;28;20232;-65
2022/12/04 13:47:00;;;;;;;20.55;7.82;;;2.90;99.90;;;;;;4973129;28;20213;-65
2022/12/04 13:49:30;;;;;;;9.90;5.68;;;2.90;99.90;;;;;;4974220;28;20568;-65
2022/12/04 13:51:58;;;;;;;10.15;6.32;;;2.90;99.90;;;;;;4973466;28;20255;-65
2022/12/04 13:54:30;;;;;;;7.95;6.80;;;2.90;99.90;;;;;;4974223;28;20680;-65
2022/12/04 13:57:16;;;;;;;13.32;9.07;;;2.90;99.90;;;;;;4990604;28;20661;-65
2022/12/04 13:59:43;;;;;;;9.02;6.25;;;3.00;99.90;;;;;;4992270;28;20192;-65
2022/12/04 14:02:27;;;;;;;7.30;6.50;;;2.90;99.90;;;;;;4991660;28;20239;-64
2022/12/04 14:04:58;;;;;;;20.60;7.70;;;2.90;99.90;;;;;;4992160;28;20211;-64
2022/12/04 14:07:28;;;;;;;14.90;7.53;;;3.00;99.90;;;;;;4980217;28;20208;-64
2022/12/04 14:09:57;;;;;;;6.72;4.88;;;3.00;99.90;;;;;;4983150;28;20219;-64
2022/12/04 14:12:29;;;;;;;15.43;10.20;;;3.00;99.90;;;;;;4975288;28;20224;-64
2022/12/04 14:14:58;;;;;;;7.28;4.53;;;3.00;99.90;;;;;;4979198;28;20257;-64
2022/12/04 14:17:28;;;;;;;3.25;3.25;;;3.00;99.90;;;;;;4971797;28;20236;-64
2022/12/04 14:19:57;;;;;;;5.32;4.60;;;3.10;99.90;;;;;;4978471;28;20671;-64
2022/12/04 14:22:29;;;;;;;12.98;6.60;;;3.00;99.90;;;;;;4972433;28;20311;-64
2022/12/04 14:25:07;;;;;;;6.10;5.50;;;3.00;99.90;;;;;;4972188;28;20561;-65
2022/12/04 14:27:44;;;;;;;9.55;4.75;;;3.00;99.90;;;;;;4972392;28;20208;-65
2022/12/04 14:30:19;;;;;;;12.32;8.80;;;3.00;99.90;;;;;;4982741;28;20205;-65
2022/12/04 14:32:48;;;;;;;17.55;5.75;;;3.00;99.90;;;;;;4973442;28;20200;-65
2022/12/04 14:35:16;;;;;;;5.50;4.97;;;3.00;99.90;;;;;;4980907;28;20211;-65
2022/12/04 14:37:52;;;;;;;5.25;4.18;;;3.00;99.90;;;;;;4986131;28;20231;-65
2022/12/04 14:40:22;;;;;;;10.57;6.00;;;3.00;99.90;;;;;;4971968;28;20213;-65
2022/12/04 14:42:51;;;;;;;18.33;7.97;;;3.10;99.90;;;;;;4971376;28;20324;-65
2022/12/04 14:45:27;;;;;;;15.85;8.48;;;3.00;99.90;;;;;;4973182;28;20230;-65
2022/12/04 14:48:21;;;;;;;9.52;7.82;;;3.10;99.90;;;;;;4970952;28;20286;-65
2022/12/04 14:50:57;;;;;;;11.05;6.93;;;3.10;99.90;;;;;;4971401;28;20231;-64
2022/12/04 14:53:33;;;;;;;6.03;5.50;;;3.10;99.90;;;;;;4971745;28;20663;-65
2022/12/04 14:56:13;;;;;;;9.70;6.85;;;3.10;99.90;;;;;;4980114;28;20231;-64
2022/12/04 14:58:43;;;;;;;6.97;6.57;;;3.00;99.90;;;;;;4984384;28;20226;-64
2022/12/04 15:01:20;;;;;;;6.78;6.28;;;3.10;99.90;;;;;;4988746;28;20250;-65
2022/12/04 15:03:49;;;;;;;8.82;8.02;;;3.10;99.90;;;;;;4971237;28;20227;-65
2022/12/04 15:06:20;;;;;;;20.25;8.25;;;3.10;99.90;;;;;;4971452;28;20216;-65
2022/12/04 15:08:51;;;;;;;9.35;8.65;;;3.10;99.90;;;;;;4971432;28;20296;-65
2022/12/04 15:14:12;;;;;;;8.95;6.47;;;3.10;99.90;;;;;;4981113;28;20688;-65
2022/12/04 15:16:39;;;;;;;20.55;6.07;;;3.10;99.90;;;;;;4987313;28;20243;-65
2022/12/04 15:19:14;;;;;;;7.97;4.32;;;3.20;99.90;;;;;;4973839;28;20570;-65
2022/12/04 15:21:42;;;;;;;28.67;8.68;;;3.10;99.90;;;;;;4979974;28;20791;-65
2022/12/04 15:24:09;;;;;;;8.13;6.60;;;3.10;99.90;;;;;;4971761;28;20753;-65
2022/12/04 15:26:37;;;;;;;8.55;6.38;;;3.10;99.90;;;;;;4971554;28;20271;-65
2022/12/04 15:29:08;;;;;;;7.63;6.50;;;3.20;99.90;;;;;;4977986;28;20216;-65
2022/12/04 15:31:37;;;;;;;16.60;6.63;;;3.20;99.90;;;;;;4976012;28;20248;-65
2022/12/04 15:34:13;;;;;;;8.27;7.55;;;3.10;99.90;;;;;;4977265;28;20200;-65
2022/12/04 15:36:45;;;;;;;15.50;8.75;;;3.10;99.90;;;;;;4978132;28;20217;-65
2022/12/04 15:39:21;;;;;;;12.10;7.90;;;3.10;99.90;;;;;;4986218;28;20200;-65
2022/12/04 15:41:48;;;;;;;7.97;7.30;;;3.20;99.90;;;;;;4990745;28;20231;-65
2022/12/04 15:44:27;;;;;;;7.50;5.00;;;3.20;99.90;;;;;;4982437;28;20228;-65
2022/12/04 15:46:54;;;;;;;17.05;10.18;;;3.20;99.90;;;;;;4977770;28;20212;-65
2022/12/04 15:49:27;;;;;;;10.02;6.45;;;3.20;99.90;;;;;;4972376;28;20691;-65
2022/12/04 15:52:05;;;;;;;7.15;6.47;;;3.20;99.90;;;;;;4971051;28;20263;-64
2022/12/04 15:54:35;;;;;;;19.02;9.32;;;3.20;99.90;;;;;;4970067;28;20303;-64
2022/12/04 15:57:03;;;;;;;10.60;8.90;;;3.20;99.90;;;;;;4971288;28;20713;-64
2022/12/04 15:59:34;;;;;;;6.45;5.85;;;3.20;99.90;;;;;;4971213;28;20213;-65
2022/12/04 16:02:06;;;;;;;4.05;3.75;;;3.30;99.90;;;;;;4970220;28;20239;-65
2022/12/04 16:04:34;;;;;;;6.55;5.70;;;3.30;99.90;;;;;;4982783;28;20228;-65
2022/12/04 16:07:01;;;;;;;11.90;5.65;;;3.30;99.90;;;;;;4972263;28;20275;-64
2022/12/04 16:09:29;;;;;;;11.10;7.88;;;3.30;99.90;;;;;;4989591;28;20263;-64
2022/12/04 16:12:01;;;;;;;12.15;6.13;;;3.30;99.90;;;;;;4975999;28;20236;-65
2022/12/04 16:14:28;;;;;;;23.85;9.88;;;3.30;99.90;;;;;;4986190;28;20803;-64
2022/12/04 16:16:59;;;;;;;6.93;5.40;;;3.30;99.90;;;;;;4975956;28;20204;-64
2022/12/04 16:19:31;;;;;;;6.13;5.70;;;3.30;99.90;;;;;;4980656;28;20252;-65
2022/12/04 16:21:58;;;;;;;10.13;9.27;;;3.40;99.90;;;;;;4971517;28;20655;-65
2022/12/04 16:24:25;;;;;;;11.10;6.03;;;3.40;99.90;;;;;;4987459;28;20282;-64
2022/12/04 16:26:54;;;;;;;5.00;4.55;;;3.40;99.90;;;;;;4991575;28;20254;-65
2022/12/04 16:29:21;;;;;;;10.18;7.40;;;3.40;99.90;;;;;;4985267;28;20201;-64
2022/12/04 16:31:49;;;;;;;24.85;8.77;;;3.40;99.90;;;;;;4976990;28;20243;-65
2022/12/04 16:34:17;;;;;;;10.18;7.35;;;3.40;99.90;;;;;;4985537;28;20200;-65
2022/12/04 16:36:43;;;;;;;9.15;8.40;;;3.40;99.90;;;;;;4990241;28;20272;-65
2022/12/04 16:39:10;;;;;;;17.45;10.18;;;3.40;99.90;;;;;;4974332;28;20207;-65
2022/12/04 16:41:37;;;;;;;7.40;6.70;;;3.50;99.90;;;;;;4973146;28;20581;-65
2022/12/04 16:44:11;;;;;;;6.72;6.00;;;3.40;99.90;;;;;;4973990;28;20228;-65
2022/12/04 16:46:38;;;;;;;5.82;5.32;;;3.50;99.90;;;;;;4983568;28;20207;-65
2022/12/04 16:49:05;;;;;;;9.98;5.88;;;3.50;99.90;;;;;;4987625;28;20212;-65
2022/12/04 16:51:33;;;;;;;12.75;8.48;;;3.50;99.90;;;;;;4980954;28;20225;-65
2022/12/04 16:54:00;;;;;;;14.40;5.90;;;3.50;99.90;;;;;;4974215;28;20279;-64
2022/12/04 16:56:27;;;;;;;9.93;6.75;;;3.50;99.90;;;;;;4976717;28;20212;-64
2022/12/04 16:58:53;;;;;;;8.40;6.00;;;3.50;99.90;;;;;;4974423;28;20252;-65
2022/12/04 17:01:23;;;;;;;6.15;4.88;;;3.50;99.90;;;;;;4979923;28;20236;-64
2022/12/04 17:03:50;;;;;;;16.27;7.15;;;3.50;99.90;;;;;;4983371;28;20680;-64
2022/12/04 17:06:17;;;;;;;19.08;7.75;;;3.50;99.90;;;;;;4981743;28;20212;-64
2022/12/04 17:08:45;;;;;;;8.15;6.13;;;3.50;99.90;;;;;;4989760;28;20609;-64
2022/12/04 17:11:13;;;;;;;7.03;6.40;;;3.50;99.90;;;;;;4973782;28;20236;-64
2022/12/04 17:13:40;;;;;;;9.85;8.93;;;3.50;99.90;;;;;;4974711;28;20206;-64
2022/12/04 17:16:07;;;;;;;14.68;8.70;;;3.50;99.90;;;;;;4986510;28;20223;-64
2022/12/04 17:18:34;;;;;;;5.70;5.30;;;3.50;99.90;;;;;;4977491;28;20213;-64
2022/12/04 17:21:05;;;;;;;16.83;6.13;;;3.50;99.90;;;;;;4984170;28;20594;-64
2022/12/04 17:23:31;;;;;;;7.95;7.20;;;3.60;99.90;;;;;;4972576;28;20216;-64
2022/12/04 17:26:02;;;;;;;12.38;7.45;;;3.60;99.90;;;;;;4974386;28;20279;-64
2022/12/04 17:28:29;;;;;;;11.55;5.70;;;3.60;99.90;;;;;;4973620;28;20212;-64
2022/12/04 17:30:56;;;;;;;7.20;5.32;;;3.60;99.90;;;;;;4972222;28;20239;-64
2022/12/04 17:33:23;;;;;;;7.13;6.53;;;3.60;99.90;;;;;;5004106;23;20705;-64
2022/12/04 17:35:51;;;;;;;8.85;7.32;;;3.60;99.90;;;;;;4991117;28;20216;-64
2022/12/04 17:38:18;;;;;;;6.13;5.60;;;3.60;99.90;;;;;;4985438;28;20224;-65
2022/12/04 17:40:45;;;;;;;4.40;3.92;;;3.60;99.90;;;;;;4990811;28;20196;-66
2022/12/04 17:43:13;;;;;;;12.80;7.38;;;3.60;99.90;;;;;;4990136;28;20233;-65
2022/12/04 17:45:40;;;;;;;5.78;5.35;;;3.60;99.90;;;;;;4964884;28;20233;-64
2022/12/04 17:48:07;;;;;;;7.82;5.68;;;3.60;99.90;;;;;;4959421;28;20233;-64
2022/12/04 17:50:34;;;;;;;12.98;6.65;;;3.60;99.90;;;;;;4971140;28;20253;-65
2022/12/04 17:53:00;;;;;;;9.68;7.43;;;3.60;99.90;;;;;;4966584;28;20252;-63
2022/12/04 17:55:27;;;;;;;5.80;5.60;;;3.60;99.90;;;;;;4956795;28;20202;-64
2022/12/04 17:57:54;;;;;;;9.05;6.63;;;3.60;99.90;;;;;;4960745;28;20232;-65
2022/12/04 18:00:22;;;;;;;10.35;7.13;;;3.60;99.90;;;;;;4965004;28;20218;-65
2022/12/04 18:02:49;;;;;;;8.52;6.45;;;3.60;99.90;;;;;;4965184;28;20232;-63
2022/12/04 18:05:15;;;;;;;6.20;5.63;;;3.60;99.90;;;;;;4965594;28;20307;-65
2022/12/04 18:07:42;;;;;;;4.43;4.20;;;3.60;99.90;;;;;;4972617;28;20208;-64
2022/12/04 18:10:09;;;;;;;9.00;4.88;;;3.60;99.90;;;;;;4970142;28;20217;-64
2022/12/04 18:12:35;;;;;;;6.07;3.72;;;3.60;99.90;;;;;;4965469;28;20233;-65